sensor_id;sensor_type;location;lat;lon;timestamp;P1;durP1;ratioP1;P2;durP2;ratioP2
71629;SDS011;59479;51.902;8.212;2023-12-22T00:01:26;42.65;;;4.55;;
71629;SDS011;59479;51.902;8.212;2023-12-22T00:03:52;25.23;;;4.23;;
71629;SDS011;59479;51.902;8.212;2023-12-22T00:06:17;38.15;;;5.30;;
71629;SDS011;59479;51.902;8.212;2023-12-22T00:08:43;23.80;;;3.57;;
71629;SDS011;59479;51.902;8.212;2023-12-22T00:11:10;32.80;;;5.20;;
71629;SDS011;59479;51.902;8.212;2023-12-22T00:13:36;27.40;;;4.53;;
71629;SDS011;59479;51.902;8.212;2023-12-22T00:16:01;23.83;;;3.93;;
71629;SDS011;59479;51.902;8.212;2023-12-22T00:18:27;22.23;;;3.33;;
71629;SDS011;59479;51.902;8.212;2023-12-22T00:20:55;25.73;;;3.95;;
71629;SDS011;59479;51.902;8.212;2023-12-22T00:23:21;21.33;;;3.33;;
71629;SDS011;59479;51.902;8.212;2023-12-22T00:25:51;24.52;;;4.00;;
71629;SDS011;59479;51.902;8.212;2023-12-22T00:28:16;36.73;;;5.17;;
71629;SDS011;59479;51.902;8.212;2023-12-22T00:30:42;25.37;;;4.17;;
71629;SDS011;59479;51.902;8.212;2023-12-22T00:33:07;42.53;;;6.63;;
71629;SDS011;59479;51.902;8.212;2023-12-22T00:35:33;27.37;;;4.60;;
71629;SDS011;59479;51.902;8.212;2023-12-22T00:38:03;32.90;;;5.13;;
71629;SDS011;59479;51.902;8.212;2023-12-22T00:40:29;24.70;;;3.60;;
71629;SDS011;59479;51.902;8.212;2023-12-22T00:42:54;36.43;;;4.57;;
71629;SDS011;59479;51.902;8.212;2023-12-22T00:45:19;33.80;;;5.03;;
71629;SDS011;59479;51.902;8.212;2023-12-22T00:47:45;24.50;;;4.17;;
71629;SDS011;59479;51.902;8.212;2023-12-22T00:50:10;36.33;;;5.00;;
71629;SDS011;59479;51.902;8.212;2023-12-22T00:52:36;24.98;;;4.13;;
71629;SDS011;59479;51.902;8.212;2023-12-22T00:55:09;23.90;;;3.60;;
71629;SDS011;59479;51.902;8.212;2023-12-22T00:57:34;21.48;;;3.33;;
71629;SDS011;59479;51.902;8.212;2023-12-22T01:00:00;19.53;;;3.20;;
71629;SDS011;59479;51.902;8.212;2023-12-22T01:02:31;22.75;;;3.63;;
71629;SDS011;59479;51.902;8.212;2023-12-22T01:04:57;13.98;;;3.28;;
71629;SDS011;59479;51.902;8.212;2023-12-22T01:07:22;20.90;;;3.47;;
71629;SDS011;59479;51.902;8.212;2023-12-22T01:09:48;25.50;;;3.63;;
71629;SDS011;59479;51.902;8.212;2023-12-22T01:12:13;32.17;;;4.83;;
71629;SDS011;59479;51.902;8.212;2023-12-22T01:14:38;27.33;;;3.77;;
71629;SDS011;59479;51.902;8.212;2023-12-22T01:17:04;18.92;;;3.35;;
71629;SDS011;59479;51.902;8.212;2023-12-22T01:19:32;26.88;;;3.42;;
71629;SDS011;59479;51.902;8.212;2023-12-22T01:21:57;20.63;;;3.43;;
71629;SDS011;59479;51.902;8.212;2023-12-22T01:24:25;43.97;;;5.40;;
71629;SDS011;59479;51.902;8.212;2023-12-22T01:26:51;30.47;;;4.40;;
71629;SDS011;59479;51.902;8.212;2023-12-22T01:29:16;35.42;;;4.72;;
71629;SDS011;59479;51.902;8.212;2023-12-22T01:31:41;23.10;;;3.83;;
71629;SDS011;59479;51.902;8.212;2023-12-22T01:34:07;25.07;;;4.10;;
71629;SDS011;59479;51.902;8.212;2023-12-22T01:36:35;23.97;;;3.53;;
71629;SDS011;59479;51.902;8.212;2023-12-22T01:39:00;21.98;;;3.17;;
71629;SDS011;59479;51.902;8.212;2023-12-22T01:41:26;29.10;;;3.60;;
71629;SDS011;59479;51.902;8.212;2023-12-22T01:43:51;26.70;;;3.40;;
71629;SDS011;59479;51.902;8.212;2023-12-22T01:46:16;38.03;;;4.53;;
71629;SDS011;59479;51.902;8.212;2023-12-22T01:48:42;27.52;;;3.95;;
71629;SDS011;59479;51.902;8.212;2023-12-22T01:51:11;34.05;;;4.25;;
71629;SDS011;59479;51.902;8.212;2023-12-22T01:53:40;25.60;;;3.13;;
71629;SDS011;59479;51.902;8.212;2023-12-22T01:56:05;15.73;;;2.78;;
71629;SDS011;59479;51.902;8.212;2023-12-22T01:58:31;25.83;;;3.67;;
71629;SDS011;59479;51.902;8.212;2023-12-22T02:00:59;19.85;;;2.95;;
71629;SDS011;59479;51.902;8.212;2023-12-22T02:03:26;32.10;;;4.00;;
71629;SDS011;59479;51.902;8.212;2023-12-22T02:05:52;28.02;;;3.88;;
71629;SDS011;59479;51.902;8.212;2023-12-22T02:08:18;33.75;;;4.70;;
71629;SDS011;59479;51.902;8.212;2023-12-22T02:10:46;20.67;;;3.30;;
71629;SDS011;59479;51.902;8.212;2023-12-22T02:13:11;21.50;;;3.05;;
71629;SDS011;59479;51.902;8.212;2023-12-22T02:15:37;17.27;;;2.83;;
71629;SDS011;59479;51.902;8.212;2023-12-22T02:20:51;26.15;;;3.45;;
71629;SDS011;59479;51.902;8.212;2023-12-22T02:23:18;38.55;;;4.68;;
71629;SDS011;59479;51.902;8.212;2023-12-22T02:25:47;27.73;;;3.45;;
71629;SDS011;59479;51.902;8.212;2023-12-22T02:28:17;37.83;;;4.72;;
71629;SDS011;59479;51.902;8.212;2023-12-22T02:30:52;19.60;;;3.10;;
71629;SDS011;59479;51.902;8.212;2023-12-22T02:33:24;41.72;;;5.07;;
71629;SDS011;59479;51.902;8.212;2023-12-22T02:35:52;17.40;;;2.60;;
71629;SDS011;59479;51.902;8.212;2023-12-22T02:38:22;37.28;;;5.28;;
71629;SDS011;59479;51.902;8.212;2023-12-22T02:40:51;25.23;;;3.25;;
71629;SDS011;59479;51.902;8.212;2023-12-22T02:43:17;31.87;;;4.60;;
71629;SDS011;59479;51.902;8.212;2023-12-22T02:45:43;22.07;;;3.40;;
71629;SDS011;59479;51.902;8.212;2023-12-22T02:48:08;19.08;;;3.05;;
71629;SDS011;59479;51.902;8.212;2023-12-22T02:50:44;28.53;;;3.67;;
71629;SDS011;59479;51.902;8.212;2023-12-22T02:53:10;36.65;;;5.10;;
71629;SDS011;59479;51.902;8.212;2023-12-22T02:55:35;19.55;;;3.65;;
71629;SDS011;59479;51.902;8.212;2023-12-22T02:58:03;20.98;;;2.83;;
71629;SDS011;59479;51.902;8.212;2023-12-22T03:00:28;35.73;;;4.67;;
71629;SDS011;59479;51.902;8.212;2023-12-22T03:02:54;27.70;;;3.70;;
71629;SDS011;59479;51.902;8.212;2023-12-22T03:05:19;33.00;;;4.72;;
71629;SDS011;59479;51.902;8.212;2023-12-22T03:07:45;21.17;;;3.57;;
71629;SDS011;59479;51.902;8.212;2023-12-22T03:10:10;19.27;;;3.80;;
71629;SDS011;59479;51.902;8.212;2023-12-22T03:12:36;19.97;;;2.93;;
71629;SDS011;59479;51.902;8.212;2023-12-22T03:15:01;24.90;;;3.63;;
71629;SDS011;59479;51.902;8.212;2023-12-22T03:17:30;49.23;;;5.93;;
71629;SDS011;59479;51.902;8.212;2023-12-22T03:19:55;28.83;;;3.63;;
71629;SDS011;59479;51.902;8.212;2023-12-22T03:22:21;41.08;;;4.93;;
71629;SDS011;59479;51.902;8.212;2023-12-22T03:24:46;31.60;;;4.37;;
71629;SDS011;59479;51.902;8.212;2023-12-22T03:27:12;24.57;;;3.60;;
71629;SDS011;59479;51.902;8.212;2023-12-22T03:29:41;29.55;;;4.68;;
71629;SDS011;59479;51.902;8.212;2023-12-22T03:32:07;25.73;;;3.93;;
71629;SDS011;59479;51.902;8.212;2023-12-22T03:34:33;54.75;;;6.53;;
71629;SDS011;59479;51.902;8.212;2023-12-22T03:37:01;34.67;;;4.97;;
71629;SDS011;59479;51.902;8.212;2023-12-22T03:39:27;54.50;;;6.13;;
71629;SDS011;59479;51.902;8.212;2023-12-22T03:41:53;20.10;;;2.90;;
71629;SDS011;59479;51.902;8.212;2023-12-22T03:44:18;27.63;;;3.87;;
71629;SDS011;59479;51.902;8.212;2023-12-22T03:46:43;25.20;;;3.13;;
71629;SDS011;59479;51.902;8.212;2023-12-22T03:49:12;25.08;;;3.55;;
71629;SDS011;59479;51.902;8.212;2023-12-22T03:51:41;29.63;;;3.87;;
71629;SDS011;59479;51.902;8.212;2023-12-22T03:54:07;23.73;;;3.60;;
71629;SDS011;59479;51.902;8.212;2023-12-22T03:56:34;44.15;;;6.28;;
71629;SDS011;59479;51.902;8.212;2023-12-22T03:59:00;21.17;;;3.40;;
71629;SDS011;59479;51.902;8.212;2023-12-22T04:01:25;42.80;;;5.60;;
71629;SDS011;59479;51.902;8.212;2023-12-22T04:03:50;22.07;;;3.17;;
71629;SDS011;59479;51.902;8.212;2023-12-22T04:06:16;22.00;;;3.40;;
71629;SDS011;59479;51.902;8.212;2023-12-22T04:09:02;20.90;;;3.08;;
71629;SDS011;59479;51.902;8.212;2023-12-22T04:11:30;41.08;;;5.70;;
71629;SDS011;59479;51.902;8.212;2023-12-22T04:14:06;24.65;;;3.30;;
71629;SDS011;59479;51.902;8.212;2023-12-22T04:16:54;21.42;;;3.50;;
71629;SDS011;59479;51.902;8.212;2023-12-22T04:19:25;27.20;;;3.50;;
71629;SDS011;59479;51.902;8.212;2023-12-22T04:21:51;21.13;;;3.40;;
71629;SDS011;59479;51.902;8.212;2023-12-22T04:24:16;24.80;;;3.50;;
71629;SDS011;59479;51.902;8.212;2023-12-22T04:26:47;47.47;;;6.23;;
71629;SDS011;59479;51.902;8.212;2023-12-22T04:29:36;18.83;;;2.85;;
71629;SDS011;59479;51.902;8.212;2023-12-22T04:32:06;19.42;;;3.10;;
71629;SDS011;59479;51.902;8.212;2023-12-22T04:34:39;37.60;;;5.70;;
71629;SDS011;59479;51.902;8.212;2023-12-22T04:37:10;19.65;;;3.22;;
71629;SDS011;59479;51.902;8.212;2023-12-22T04:40:01;27.03;;;3.53;;
71629;SDS011;59479;51.902;8.212;2023-12-22T04:42:31;38.55;;;5.40;;
71629;SDS011;59479;51.902;8.212;2023-12-22T04:45:10;17.38;;;3.15;;
71629;SDS011;59479;51.902;8.212;2023-12-22T04:47:36;35.17;;;5.17;;
71629;SDS011;59479;51.902;8.212;2023-12-22T04:50:01;18.33;;;2.90;;
71629;SDS011;59479;51.902;8.212;2023-12-22T04:52:29;29.17;;;4.70;;
71629;SDS011;59479;51.902;8.212;2023-12-22T04:54:57;16.63;;;2.90;;
71629;SDS011;59479;51.902;8.212;2023-12-22T04:57:31;29.83;;;4.50;;
71629;SDS011;59479;51.902;8.212;2023-12-22T05:00:04;16.80;;;2.88;;
71629;SDS011;59479;51.902;8.212;2023-12-22T05:02:31;34.27;;;4.97;;
71629;SDS011;59479;51.902;8.212;2023-12-22T05:05:02;19.13;;;3.22;;
71629;SDS011;59479;51.902;8.212;2023-12-22T05:07:34;35.08;;;5.32;;
71629;SDS011;59479;51.902;8.212;2023-12-22T05:10:07;14.93;;;3.38;;
71629;SDS011;59479;51.902;8.212;2023-12-22T05:12:39;30.08;;;4.82;;
71629;SDS011;59479;51.902;8.212;2023-12-22T05:15:24;21.43;;;3.53;;
71629;SDS011;59479;51.902;8.212;2023-12-22T05:18:00;20.92;;;3.67;;
71629;SDS011;59479;51.902;8.212;2023-12-22T05:20:37;29.20;;;4.68;;
71629;SDS011;59479;51.902;8.212;2023-12-22T05:23:05;24.60;;;4.05;;
71629;SDS011;59479;51.902;8.212;2023-12-22T05:25:35;35.25;;;4.85;;
71629;SDS011;59479;51.902;8.212;2023-12-22T05:28:01;15.23;;;3.00;;
71629;SDS011;59479;51.902;8.212;2023-12-22T05:30:26;15.30;;;3.03;;
71629;SDS011;59479;51.902;8.212;2023-12-22T05:32:52;33.43;;;5.03;;
71629;SDS011;59479;51.902;8.212;2023-12-22T05:35:17;20.20;;;3.73;;
71629;SDS011;59479;51.902;8.212;2023-12-22T05:37:42;41.67;;;6.10;;
71629;SDS011;59479;51.902;8.212;2023-12-22T05:40:08;18.08;;;3.15;;
71629;SDS011;59479;51.902;8.212;2023-12-22T05:42:34;33.40;;;5.80;;
71629;SDS011;59479;51.902;8.212;2023-12-22T05:45:03;24.08;;;4.18;;
71629;SDS011;59479;51.902;8.212;2023-12-22T05:47:29;18.95;;;3.47;;
71629;SDS011;59479;51.902;8.212;2023-12-22T05:49:54;16.10;;;2.90;;
71629;SDS011;59479;51.902;8.212;2023-12-22T05:52:22;14.63;;;2.65;;
71629;SDS011;59479;51.902;8.212;2023-12-22T05:54:47;43.13;;;5.60;;
71629;SDS011;59479;51.902;8.212;2023-12-22T05:57:12;15.40;;;2.70;;
71629;SDS011;59479;51.902;8.212;2023-12-22T05:59:38;34.50;;;5.55;;
71629;SDS011;59479;51.902;8.212;2023-12-22T06:02:04;19.77;;;3.03;;
71629;SDS011;59479;51.902;8.212;2023-12-22T06:04:30;21.35;;;3.55;;
71629;SDS011;59479;51.902;8.212;2023-12-22T06:07:01;15.40;;;2.85;;
71629;SDS011;59479;51.902;8.212;2023-12-22T06:09:26;19.27;;;3.97;;
71629;SDS011;59479;51.902;8.212;2023-12-22T06:11:52;16.70;;;3.15;;
71629;SDS011;59479;51.902;8.212;2023-12-22T06:14:17;13.50;;;2.87;;
71629;SDS011;59479;51.902;8.212;2023-12-22T06:16:45;34.50;;;5.23;;
71629;SDS011;59479;51.902;8.212;2023-12-22T06:19:14;12.75;;;2.85;;
71629;SDS011;59479;51.902;8.212;2023-12-22T06:21:42;40.45;;;6.25;;
71629;SDS011;59479;51.902;8.212;2023-12-22T06:24:07;17.40;;;3.17;;
71629;SDS011;59479;51.902;8.212;2023-12-22T06:26:33;19.55;;;3.75;;
71629;SDS011;59479;51.902;8.212;2023-12-22T06:28:59;23.17;;;3.53;;
71629;SDS011;59479;51.902;8.212;2023-12-22T06:31:25;14.18;;;2.85;;
71629;SDS011;59479;51.902;8.212;2023-12-22T06:33:50;12.87;;;3.13;;
71629;SDS011;59479;51.902;8.212;2023-12-22T06:36:23;14.77;;;3.33;;
71629;SDS011;59479;51.902;8.212;2023-12-22T06:38:52;30.95;;;5.10;;
71629;SDS011;59479;51.902;8.212;2023-12-22T06:41:27;15.50;;;3.60;;
71629;SDS011;59479;51.902;8.212;2023-12-22T06:43:54;12.15;;;3.30;;
71629;SDS011;59479;51.902;8.212;2023-12-22T06:46:25;7.40;;;2.10;;
71629;SDS011;59479;51.902;8.212;2023-12-22T06:48:51;24.10;;;3.70;;
71629;SDS011;59479;51.902;8.212;2023-12-22T06:51:21;13.57;;;2.90;;
71629;SDS011;59479;51.902;8.212;2023-12-22T06:53:51;17.70;;;3.97;;
71629;SDS011;59479;51.902;8.212;2023-12-22T06:56:23;11.60;;;2.75;;
71629;SDS011;59479;51.902;8.212;2023-12-22T06:58:50;24.63;;;5.43;;
71629;SDS011;59479;51.902;8.212;2023-12-22T07:01:27;12.70;;;2.47;;
71629;SDS011;59479;51.902;8.212;2023-12-22T07:03:54;17.50;;;4.00;;
71629;SDS011;59479;51.902;8.212;2023-12-22T07:06:20;16.17;;;3.20;;
71629;SDS011;59479;51.902;8.212;2023-12-22T07:11:39;18.02;;;3.67;;
71629;SDS011;59479;51.902;8.212;2023-12-22T07:14:08;16.83;;;3.67;;
71629;SDS011;59479;51.902;8.212;2023-12-22T07:16:44;21.77;;;4.80;;
71629;SDS011;59479;51.902;8.212;2023-12-22T07:19:10;14.18;;;2.53;;
71629;SDS011;59479;51.902;8.212;2023-12-22T07:21:40;13.68;;;3.67;;
71629;SDS011;59479;51.902;8.212;2023-12-22T07:24:08;13.50;;;3.88;;
71629;SDS011;59479;51.902;8.212;2023-12-22T07:26:36;18.40;;;3.53;;
71629;SDS011;59479;51.902;8.212;2023-12-22T07:29:04;11.70;;;2.83;;
71629;SDS011;59479;51.902;8.212;2023-12-22T07:31:30;10.82;;;2.67;;
71629;SDS011;59479;51.902;8.212;2023-12-22T07:33:58;16.52;;;4.03;;
71629;SDS011;59479;51.902;8.212;2023-12-22T07:36:35;10.93;;;2.83;;
71629;SDS011;59479;51.902;8.212;2023-12-22T07:39:01;12.10;;;3.38;;
71629;SDS011;59479;51.902;8.212;2023-12-22T07:41:31;13.27;;;3.10;;
71629;SDS011;59479;51.902;8.212;2023-12-22T07:43:59;14.48;;;2.83;;
71629;SDS011;59479;51.902;8.212;2023-12-22T07:46:26;9.40;;;2.75;;
71629;SDS011;59479;51.902;8.212;2023-12-22T07:48:55;13.02;;;2.65;;
71629;SDS011;59479;51.902;8.212;2023-12-22T07:51:39;19.73;;;2.95;;
71629;SDS011;59479;51.902;8.212;2023-12-22T07:54:04;6.28;;;2.25;;
71629;SDS011;59479;51.902;8.212;2023-12-22T07:56:37;18.08;;;3.28;;
71629;SDS011;59479;51.902;8.212;2023-12-22T07:59:05;12.10;;;2.78;;
71629;SDS011;59479;51.902;8.212;2023-12-22T08:01:33;21.13;;;3.42;;
71629;SDS011;59479;51.902;8.212;2023-12-22T08:03:59;14.80;;;3.67;;
71629;SDS011;59479;51.902;8.212;2023-12-22T08:06:24;10.25;;;2.83;;
71629;SDS011;59479;51.902;8.212;2023-12-22T08:08:50;19.95;;;4.25;;
71629;SDS011;59479;51.902;8.212;2023-12-22T08:11:15;19.33;;;3.10;;
71629;SDS011;59479;51.902;8.212;2023-12-22T08:13:50;16.45;;;3.67;;
71629;SDS011;59479;51.902;8.212;2023-12-22T08:16:20;9.20;;;2.50;;
71629;SDS011;59479;51.902;8.212;2023-12-22T08:18:45;18.58;;;4.40;;
71629;SDS011;59479;51.902;8.212;2023-12-22T08:21:18;16.70;;;3.10;;
71629;SDS011;59479;51.902;8.212;2023-12-22T08:23:52;19.15;;;3.67;;
71629;SDS011;59479;51.902;8.212;2023-12-22T08:26:17;13.80;;;3.43;;
71629;SDS011;59479;51.902;8.212;2023-12-22T08:28:44;20.15;;;4.45;;
71629;SDS011;59479;51.902;8.212;2023-12-22T08:31:21;12.55;;;2.72;;
71629;SDS011;59479;51.902;8.212;2023-12-22T08:33:47;16.63;;;3.97;;
71629;SDS011;59479;51.902;8.212;2023-12-22T08:36:15;11.18;;;2.83;;
71629;SDS011;59479;51.902;8.212;2023-12-22T08:38:41;17.87;;;4.03;;
71629;SDS011;59479;51.902;8.212;2023-12-22T08:41:07;15.10;;;3.77;;
71629;SDS011;59479;51.902;8.212;2023-12-22T08:43:33;11.70;;;2.60;;
71629;SDS011;59479;51.902;8.212;2023-12-22T08:45:59;12.38;;;2.58;;
71629;SDS011;59479;51.902;8.212;2023-12-22T08:48:25;10.37;;;2.60;;
71629;SDS011;59479;51.902;8.212;2023-12-22T08:50:50;19.97;;;4.17;;
71629;SDS011;59479;51.902;8.212;2023-12-22T08:53:18;11.00;;;2.42;;
71629;SDS011;59479;51.902;8.212;2023-12-22T08:55:45;14.43;;;3.40;;
71629;SDS011;59479;51.902;8.212;2023-12-22T08:58:11;11.03;;;2.27;;
71629;SDS011;59479;51.902;8.212;2023-12-22T09:00:42;19.92;;;4.15;;
71629;SDS011;59479;51.902;8.212;2023-12-22T09:03:08;14.90;;;3.45;;
71629;SDS011;59479;51.902;8.212;2023-12-22T09:05:33;12.55;;;3.13;;
71629;SDS011;59479;51.902;8.212;2023-12-22T09:07:59;25.60;;;4.50;;
71629;SDS011;59479;51.902;8.212;2023-12-22T09:10:24;10.60;;;2.67;;
71629;SDS011;59479;51.902;8.212;2023-12-22T09:12:50;16.95;;;3.78;;
71629;SDS011;59479;51.902;8.212;2023-12-22T09:15:16;11.03;;;2.97;;
71629;SDS011;59479;51.902;8.212;2023-12-22T09:17:44;10.68;;;2.63;;
71629;SDS011;59479;51.902;8.212;2023-12-22T09:20:10;13.55;;;3.08;;
71629;SDS011;59479;51.902;8.212;2023-12-22T09:22:37;11.80;;;2.53;;
71629;SDS011;59479;51.902;8.212;2023-12-22T09:25:03;10.32;;;2.80;;
71629;SDS011;59479;51.902;8.212;2023-12-22T09:27:28;11.73;;;2.65;;
71629;SDS011;59479;51.902;8.212;2023-12-22T09:29:58;14.15;;;3.00;;
71629;SDS011;59479;51.902;8.212;2023-12-22T09:32:24;9.75;;;2.83;;
71629;SDS011;59479;51.902;8.212;2023-12-22T09:34:49;13.27;;;2.83;;
71629;SDS011;59479;51.902;8.212;2023-12-22T09:37:15;8.13;;;2.13;;
71629;SDS011;59479;51.902;8.212;2023-12-22T09:39:45;14.52;;;3.90;;
71629;SDS011;59479;51.902;8.212;2023-12-22T09:42:11;9.77;;;2.58;;
71629;SDS011;59479;51.902;8.212;2023-12-22T09:44:37;8.87;;;2.53;;
71629;SDS011;59479;51.902;8.212;2023-12-22T09:47:04;9.20;;;2.70;;
71629;SDS011;59479;51.902;8.212;2023-12-22T09:49:32;11.98;;;2.72;;
71629;SDS011;59479;51.902;8.212;2023-12-22T09:52:05;9.13;;;2.20;;
71629;SDS011;59479;51.902;8.212;2023-12-22T09:54:31;8.15;;;2.22;;
71629;SDS011;59479;51.902;8.212;2023-12-22T09:56:57;10.23;;;2.90;;
71629;SDS011;59479;51.902;8.212;2023-12-22T09:59:24;13.75;;;2.65;;
71629;SDS011;59479;51.902;8.212;2023-12-22T10:01:52;11.23;;;3.20;;
71629;SDS011;59479;51.902;8.212;2023-12-22T10:04:19;14.18;;;2.97;;
71629;SDS011;59479;51.902;8.212;2023-12-22T10:06:46;13.70;;;3.00;;
71629;SDS011;59479;51.902;8.212;2023-12-22T10:09:16;7.30;;;1.92;;
71629;SDS011;59479;51.902;8.212;2023-12-22T10:11:45;8.82;;;2.30;;
71629;SDS011;59479;51.902;8.212;2023-12-22T10:14:17;12.23;;;3.00;;
71629;SDS011;59479;51.902;8.212;2023-12-22T10:16:51;13.00;;;2.78;;
71629;SDS011;59479;51.902;8.212;2023-12-22T10:19:19;13.40;;;2.97;;
71629;SDS011;59479;51.902;8.212;2023-12-22T10:21:50;12.93;;;2.92;;
71629;SDS011;59479;51.902;8.212;2023-12-22T10:27:10;9.87;;;2.50;;
71629;SDS011;59479;51.902;8.212;2023-12-22T10:29:39;15.15;;;2.70;;
71629;SDS011;59479;51.902;8.212;2023-12-22T10:32:06;11.90;;;2.35;;
71629;SDS011;59479;51.902;8.212;2023-12-22T10:34:34;9.98;;;2.58;;
71629;SDS011;59479;51.902;8.212;2023-12-22T10:37:00;14.67;;;3.37;;
71629;SDS011;59479;51.902;8.212;2023-12-22T10:39:29;10.90;;;2.70;;
71629;SDS011;59479;51.902;8.212;2023-12-22T10:41:58;12.52;;;2.97;;
71629;SDS011;59479;51.902;8.212;2023-12-22T10:44:25;20.15;;;4.30;;
71629;SDS011;59479;51.902;8.212;2023-12-22T10:47:00;14.73;;;3.60;;
71629;SDS011;59479;51.902;8.212;2023-12-22T10:49:29;11.75;;;2.60;;
71629;SDS011;59479;51.902;8.212;2023-12-22T10:51:58;16.30;;;3.72;;
71629;SDS011;59479;51.902;8.212;2023-12-22T10:54:28;10.32;;;2.22;;
71629;SDS011;59479;51.902;8.212;2023-12-22T10:57:00;18.25;;;4.05;;
71629;SDS011;59479;51.902;8.212;2023-12-22T10:59:27;10.07;;;2.60;;
71629;SDS011;59479;51.902;8.212;2023-12-22T11:02:03;15.82;;;3.30;;
71629;SDS011;59479;51.902;8.212;2023-12-22T11:04:30;12.55;;;2.35;;
71629;SDS011;59479;51.902;8.212;2023-12-22T11:07:04;12.45;;;2.85;;
71629;SDS011;59479;51.902;8.212;2023-12-22T11:09:40;12.32;;;2.78;;
71629;SDS011;59479;51.902;8.212;2023-12-22T11:12:15;9.47;;;2.13;;
71629;SDS011;59479;51.902;8.212;2023-12-22T11:14:44;9.55;;;2.60;;
71629;SDS011;59479;51.902;8.212;2023-12-22T11:17:15;11.65;;;3.03;;
71629;SDS011;59479;51.902;8.212;2023-12-22T11:19:50;11.82;;;3.08;;
71629;SDS011;59479;51.902;8.212;2023-12-22T11:22:19;16.83;;;3.65;;
71629;SDS011;59479;51.902;8.212;2023-12-22T11:24:47;9.67;;;2.70;;
71629;SDS011;59479;51.902;8.212;2023-12-22T11:27:18;11.35;;;2.53;;
71629;SDS011;59479;51.902;8.212;2023-12-22T11:29:45;9.45;;;3.10;;
71629;SDS011;59479;51.902;8.212;2023-12-22T11:32:14;12.07;;;3.20;;
71629;SDS011;59479;51.902;8.212;2023-12-22T11:34:41;9.77;;;2.67;;
71629;SDS011;59479;51.902;8.212;2023-12-22T11:37:10;12.87;;;2.70;;
71629;SDS011;59479;51.902;8.212;2023-12-22T11:39:37;9.93;;;2.67;;
71629;SDS011;59479;51.902;8.212;2023-12-22T11:42:05;17.20;;;3.60;;
71629;SDS011;59479;51.902;8.212;2023-12-22T11:44:40;12.15;;;2.58;;
71629;SDS011;59479;51.902;8.212;2023-12-22T11:47:30;9.13;;;2.45;;
71629;SDS011;59479;51.902;8.212;2023-12-22T12:02:34;15.80;;;3.35;;
71629;SDS011;59479;51.902;8.212;2023-12-22T12:05:42;16.58;;;3.67;;
71629;SDS011;59479;51.902;8.212;2023-12-22T12:08:47;11.30;;;2.60;;
71629;SDS011;59479;51.902;8.212;2023-12-22T12:12:31;12.20;;;2.90;;
71629;SDS011;59479;51.902;8.212;2023-12-22T12:15:33;13.27;;;2.95;;
71629;SDS011;59479;51.902;8.212;2023-12-22T12:18:47;4.05;;;1.50;;
71629;SDS011;59479;51.902;8.212;2023-12-22T12:21:13;4.73;;;1.30;;
71629;SDS011;59479;51.902;8.212;2023-12-22T12:23:41;2.90;;;1.60;;
71629;SDS011;59479;51.902;8.212;2023-12-22T12:26:07;3.47;;;1.15;;
71629;SDS011;59479;51.902;8.212;2023-12-22T12:28:34;3.53;;;1.33;;
71629;SDS011;59479;51.902;8.212;2023-12-22T12:31:02;3.03;;;1.23;;
71629;SDS011;59479;51.902;8.212;2023-12-22T12:33:30;3.40;;;1.40;;
71629;SDS011;59479;51.902;8.212;2023-12-22T12:35:57;3.95;;;2.35;;
71629;SDS011;59479;51.902;8.212;2023-12-22T12:39:09;3.90;;;2.40;;
71629;SDS011;59479;51.902;8.212;2023-12-22T12:41:15;3.67;;;1.40;;
71629;SDS011;59479;51.902;8.212;2023-12-22T12:43:41;4.07;;;1.42;;
71629;SDS011;59479;51.902;8.212;2023-12-22T12:46:08;2.50;;;1.07;;
71629;SDS011;59479;51.902;8.212;2023-12-22T12:48:34;2.50;;;1.17;;
71629;SDS011;59479;51.902;8.212;2023-12-22T12:51:03;3.50;;;1.40;;
71629;SDS011;59479;51.902;8.212;2023-12-22T12:53:30;2.70;;;0.87;;
71629;SDS011;59479;51.902;8.212;2023-12-22T12:56:01;3.75;;;1.10;;
71629;SDS011;59479;51.902;8.212;2023-12-22T12:58:27;3.25;;;1.65;;
71629;SDS011;59479;51.902;8.212;2023-12-22T13:01:09;3.35;;;1.20;;
71629;SDS011;59479;51.902;8.212;2023-12-22T13:06:47;3.50;;;1.80;;
71629;SDS011;59479;51.902;8.212;2023-12-22T13:09:13;4.15;;;1.60;;
71629;SDS011;59479;51.902;8.212;2023-12-22T13:11:39;7.83;;;2.13;;
71629;SDS011;59479;51.902;8.212;2023-12-22T13:14:07;5.82;;;2.10;;
71629;SDS011;59479;51.902;8.212;2023-12-22T13:16:33;4.35;;;1.92;;
71629;SDS011;59479;51.902;8.212;2023-12-22T13:18:59;2.83;;;1.20;;
71629;SDS011;59479;51.902;8.212;2023-12-22T13:21:25;5.80;;;1.63;;
71629;SDS011;59479;51.902;8.212;2023-12-22T13:26:41;4.70;;;1.53;;
71629;SDS011;59479;51.902;8.212;2023-12-22T13:29:07;7.65;;;1.30;;
71629;SDS011;59479;51.902;8.212;2023-12-22T13:31:35;4.90;;;1.40;;
71629;SDS011;59479;51.902;8.212;2023-12-22T13:34:02;3.90;;;1.23;;
71629;SDS011;59479;51.902;8.212;2023-12-22T13:36:27;3.10;;;1.17;;
71629;SDS011;59479;51.902;8.212;2023-12-22T13:38:58;3.15;;;1.00;;
71629;SDS011;59479;51.902;8.212;2023-12-22T13:41:23;2.73;;;1.43;;
71629;SDS011;59479;51.902;8.212;2023-12-22T13:43:49;4.18;;;1.35;;
71629;SDS011;59479;51.902;8.212;2023-12-22T13:46:14;5.50;;;1.48;;
71629;SDS011;59479;51.902;8.212;2023-12-22T13:48:40;3.90;;;1.40;;
71629;SDS011;59479;51.902;8.212;2023-12-22T13:51:05;3.43;;;1.40;;
71629;SDS011;59479;51.902;8.212;2023-12-22T13:53:31;3.13;;;1.23;;
71629;SDS011;59479;51.902;8.212;2023-12-22T13:55:57;4.20;;;1.43;;
71629;SDS011;59479;51.902;8.212;2023-12-22T13:58:23;4.32;;;1.73;;
71629;SDS011;59479;51.902;8.212;2023-12-22T14:00:49;3.53;;;1.73;;
71629;SDS011;59479;51.902;8.212;2023-12-22T14:03:15;5.95;;;2.75;;
71629;SDS011;59479;51.902;8.212;2023-12-22T14:05:47;3.70;;;1.77;;
71629;SDS011;59479;51.902;8.212;2023-12-22T14:08:14;6.93;;;2.50;;
71629;SDS011;59479;51.902;8.212;2023-12-22T14:10:45;3.77;;;1.70;;
71629;SDS011;59479;51.902;8.212;2023-12-22T14:13:14;6.60;;;1.70;;
71629;SDS011;59479;51.902;8.212;2023-12-22T14:15:43;4.53;;;2.20;;
71629;SDS011;59479;51.902;8.212;2023-12-22T14:18:09;3.97;;;1.83;;
71629;SDS011;59479;51.902;8.212;2023-12-22T14:20:35;3.28;;;1.45;;
71629;SDS011;59479;51.902;8.212;2023-12-22T14:23:00;3.20;;;1.67;;
71629;SDS011;59479;51.902;8.212;2023-12-22T14:25:26;3.93;;;1.50;;
71629;SDS011;59479;51.902;8.212;2023-12-22T14:27:52;5.13;;;1.60;;
71629;SDS011;59479;51.902;8.212;2023-12-22T14:30:22;4.75;;;1.77;;
71629;SDS011;59479;51.902;8.212;2023-12-22T14:32:47;4.40;;;1.93;;
71629;SDS011;59479;51.902;8.212;2023-12-22T14:35:13;6.30;;;1.90;;
71629;SDS011;59479;51.902;8.212;2023-12-22T14:37:38;5.43;;;2.17;;
71629;SDS011;59479;51.902;8.212;2023-12-22T14:40:04;8.30;;;1.83;;
71629;SDS011;59479;51.902;8.212;2023-12-22T14:42:31;3.45;;;1.48;;
71629;SDS011;59479;51.902;8.212;2023-12-22T14:44:57;6.07;;;1.67;;
71629;SDS011;59479;51.902;8.212;2023-12-22T14:47:22;6.28;;;1.60;;
71629;SDS011;59479;51.902;8.212;2023-12-22T14:49:47;4.45;;;1.45;;
71629;SDS011;59479;51.902;8.212;2023-12-22T14:52:13;4.53;;;1.53;;
71629;SDS011;59479;51.902;8.212;2023-12-22T14:54:38;4.23;;;1.33;;
71629;SDS011;59479;51.902;8.212;2023-12-22T14:57:03;3.90;;;1.10;;
71629;SDS011;59479;51.902;8.212;2023-12-22T14:59:29;3.13;;;1.27;;
71629;SDS011;59479;51.902;8.212;2023-12-22T15:01:54;2.50;;;1.00;;
71629;SDS011;59479;51.902;8.212;2023-12-22T15:04:20;3.27;;;1.20;;
71629;SDS011;59479;51.902;8.212;2023-12-22T15:06:45;2.65;;;1.30;;
71629;SDS011;59479;51.902;8.212;2023-12-22T15:09:11;2.60;;;1.15;;
71629;SDS011;59479;51.902;8.212;2023-12-22T15:11:40;3.05;;;1.00;;
71629;SDS011;59479;51.902;8.212;2023-12-22T15:14:07;3.00;;;1.02;;